sensor_id;sensor_type;location;lat;lon;timestamp;temperature;humidity
22035;DHT22;11181;51.002;4.356;2023-05-01T00:02:07;18.10;99.90
22035;DHT22;11181;51.002;4.356;2023-05-01T00:04:36;18.00;99.90
22035;DHT22;11181;51.002;4.356;2023-05-01T00:07:03;18.00;99.90
22035;DHT22;11181;51.002;4.356;2023-05-01T00:09:29;18.10;99.90
22035;DHT22;11181;51.002;4.356;2023-05-01T00:11:57;18.10;99.90
22035;DHT22;11181;51.002;4.356;2023-05-01T00:14:24;18.10;99.90
22035;DHT22;11181;51.002;4.356;2023-05-01T00:16:51;18.00;99.90
22035;DHT22;11181;51.002;4.356;2023-05-01T00:19:18;18.00;99.90
22035;DHT22;11181;51.002;4.356;2023-05-01T00:21:47;18.10;99.90
22035;DHT22;11181;51.002;4.356;2023-05-01T00:24:17;18.10;99.90
22035;DHT22;11181;51.002;4.356;2023-05-01T00:26:44;18.00;99.90
22035;DHT22;11181;51.002;4.356;2023-05-01T00:29:11;18.00;99.90
22035;DHT22;11181;51.002;4.356;2023-05-01T00:31:38;18.00;99.90
22035;DHT22;11181;51.002;4.356;2023-05-01T00:34:06;18.00;99.90
22035;DHT22;11181;51.002;4.356;2023-05-01T00:36:33;18.00;99.90
22035;DHT22;11181;51.002;4.356;2023-05-01T00:39:01;18.00;99.90
22035;DHT22;11181;51.002;4.356;2023-05-01T00:41:28;17.90;99.90
22035;DHT22;11181;51.002;4.356;2023-05-01T00:43:55;17.90;99.90
22035;DHT22;11181;51.002;4.356;2023-05-01T00:46:22;17.90;99.90
22035;DHT22;11181;51.002;4.356;2023-05-01T00:48:51;17.90;99.90
22035;DHT22;11181;51.002;4.356;2023-05-01T00:51:19;17.80;99.90
22035;DHT22;11181;51.002;4.356;2023-05-01T00:53:47;17.80;99.90
22035;DHT22;11181;51.002;4.356;2023-05-01T00:56:15;17.80;99.90
22035;DHT22;11181;51.002;4.356;2023-05-01T00:58:44;17.80;99.90
22035;DHT22;11181;51.002;4.356;2023-05-01T01:01:12;17.80;99.90
22035;DHT22;11181;51.002;4.356;2023-05-01T01:03:39;17.80;99.90
22035;DHT22;11181;51.002;4.356;2023-05-01T01:06:09;17.80;99.90
22035;DHT22;11181;51.002;4.356;2023-05-01T01:08:41;17.70;99.90
22035;DHT22;11181;51.002;4.356;2023-05-01T01:11:16;17.70;99.90
22035;DHT22;11181;51.002;4.356;2023-05-01T01:13:54;17.60;99.90
22035;DHT22;11181;51.002;4.356;2023-05-01T01:16:27;17.60;99.90
22035;DHT22;11181;51.002;4.356;2023-05-01T01:19:01;17.60;99.90
22035;DHT22;11181;51.002;4.356;2023-05-01T01:21:35;17.60;99.90
22035;DHT22;11181;51.002;4.356;2023-05-01T01:24:17;17.60;99.90
22035;DHT22;11181;51.002;4.356;2023-05-01T01:27:08;17.50;99.90
22035;DHT22;11181;51.002;4.356;2023-05-01T01:29:46;17.50;99.90
22035;DHT22;11181;51.002;4.356;2023-05-01T01:32:48;17.40;99.90
22035;DHT22;11181;51.002;4.356;2023-05-01T01:35:25;17.40;99.90
22035;DHT22;11181;51.002;4.356;2023-05-01T01:38:00;17.40;99.90
22035;DHT22;11181;51.002;4.356;2023-05-01T01:40:32;17.30;99.90
22035;DHT22;11181;51.002;4.356;2023-05-01T01:43:03;17.30;99.90
22035;DHT22;11181;51.002;4.356;2023-05-01T01:45:35;17.30;99.90
22035;DHT22;11181;51.002;4.356;2023-05-01T01:48:04;17.20;99.90
22035;DHT22;11181;51.002;4.356;2023-05-01T01:50:35;17.30;99.90
22035;DHT22;11181;51.002;4.356;2023-05-01T01:53:04;17.30;99.90
22035;DHT22;11181;51.002;4.356;2023-05-01T01:55:33;17.30;99.90
22035;DHT22;11181;51.002;4.356;2023-05-01T01:58:02;17.20;99.90
22035;DHT22;11181;51.002;4.356;2023-05-01T02:00:31;17.20;99.90
22035;DHT22;11181;51.002;4.356;2023-05-01T02:03:00;17.20;99.90
22035;DHT22;11181;51.002;4.356;2023-05-01T02:05:28;17.20;99.90
22035;DHT22;11181;51.002;4.356;2023-05-01T02:07:58;17.20;99.90
22035;DHT22;11181;51.002;4.356;2023-05-01T02:10:26;17.20;99.90
22035;DHT22;11181;51.002;4.356;2023-05-01T02:12:56;17.20;99.90
22035;DHT22;11181;51.002;4.356;2023-05-01T02:15:24;17.20;99.90
22035;DHT22;11181;51.002;4.356;2023-05-01T02:17:52;17.20;99.90
22035;DHT22;11181;51.002;4.356;2023-05-01T02:20:20;17.10;99.90
22035;DHT22;11181;51.002;4.356;2023-05-01T02:22:48;17.00;99.90
22035;DHT22;11181;51.002;4.356;2023-05-01T02:25:18;17.00;99.90
22035;DHT22;11181;51.002;4.356;2023-05-01T02:27:47;17.00;99.90
22035;DHT22;11181;51.002;4.356;2023-05-01T02:30:16;17.00;99.90
22035;DHT22;11181;51.002;4.356;2023-05-01T02:32:44;17.00;99.90
22035;DHT22;11181;51.002;4.356;2023-05-01T02:35:11;17.00;99.90
22035;DHT22;11181;51.002;4.356;2023-05-01T02:37:38;17.00;99.90
22035;DHT22;11181;51.002;4.356;2023-05-01T02:40:06;17.00;99.90
22035;DHT22;11181;51.002;4.356;2023-05-01T02:42:35;17.00;99.90
22035;DHT22;11181;51.002;4.356;2023-05-01T02:45:05;17.00;99.90
22035;DHT22;11181;51.002;4.356;2023-05-01T02:47:37;17.00;99.90
22035;DHT22;11181;51.002;4.356;2023-05-01T02:50:05;16.90;99.90
22035;DHT22;11181;51.002;4.356;2023-05-01T02:52:34;17.00;99.90
22035;DHT22;11181;51.002;4.356;2023-05-01T02:55:02;16.90;99.90
22035;DHT22;11181;51.002;4.356;2023-05-01T02:57:31;16.90;99.90
22035;DHT22;11181;51.002;4.356;2023-05-01T03:00:00;16.80;99.90
22035;DHT22;11181;51.002;4.356;2023-05-01T03:02:27;16.80;99.90
22035;DHT22;11181;51.002;4.356;2023-05-01T03:04:54;16.80;99.90
22035;DHT22;11181;51.002;4.356;2023-05-01T03:07:21;16.80;99.90
22035;DHT22;11181;51.002;4.356;2023-05-01T03:09:48;16.80;99.90
22035;DHT22;11181;51.002;4.356;2023-05-01T03:12:15;16.90;99.90
22035;DHT22;11181;51.002;4.356;2023-05-01T03:14:42;16.80;99.90
22035;DHT22;11181;51.002;4.356;2023-05-01T03:17:10;16.80;99.90
22035;DHT22;11181;51.002;4.356;2023-05-01T03:19:37;16.80;99.90
22035;DHT22;11181;51.002;4.356;2023-05-01T03:22:06;16.80;99.90
22035;DHT22;11181;51.002;4.356;2023-05-01T03:24:33;16.80;99.90
22035;DHT22;11181;51.002;4.356;2023-05-01T03:27:00;16.80;99.90
22035;DHT22;11181;51.002;4.356;2023-05-01T03:29:27;16.80;99.90
22035;DHT22;11181;51.002;4.356;2023-05-01T03:31:54;16.70;99.90
22035;DHT22;11181;51.002;4.356;2023-05-01T03:34:23;16.70;99.90
22035;DHT22;11181;51.002;4.356;2023-05-01T03:36:51;16.70;99.90
22035;DHT22;11181;51.002;4.356;2023-05-01T03:39:18;16.60;99.90
22035;DHT22;11181;51.002;4.356;2023-05-01T03:41:45;16.60;99.90
22035;DHT22;11181;51.002;4.356;2023-05-01T03:44:12;16.60;99.90
22035;DHT22;11181;51.002;4.356;2023-05-01T03:46:39;16.50;99.90
22035;DHT22;11181;51.002;4.356;2023-05-01T03:49:06;16.50;99.90
22035;DHT22;11181;51.002;4.356;2023-05-01T03:51:34;16.50;99.90
22035;DHT22;11181;51.002;4.356;2023-05-01T03:54:01;16.50;99.90
22035;DHT22;11181;51.002;4.356;2023-05-01T03:56:28;16.40;99.90
22035;DHT22;11181;51.002;4.356;2023-05-01T03:59:00;16.50;99.90
22035;DHT22;11181;51.002;4.356;2023-05-01T04:01:27;16.50;99.90
22035;DHT22;11181;51.002;4.356;2023-05-01T04:03:53;16.50;99.90
22035;DHT22;11181;51.002;4.356;2023-05-01T04:06:20;16.50;99.90
22035;DHT22;11181;51.002;4.356;2023-05-01T04:08:49;16.50;99.90
22035;DHT22;11181;51.002;4.356;2023-05-01T04:11:16;16.40;99.90
22035;DHT22;11181;51.002;4.356;2023-05-01T04:13:43;16.40;99.90
22035;DHT22;11181;51.002;4.356;2023-05-01T04:16:10;16.40;99.90
22035;DHT22;11181;51.002;4.356;2023-05-01T04:18:37;16.40;99.90
22035;DHT22;11181;51.002;4.356;2023-05-01T04:21:04;16.30;99.90
22035;DHT22;11181;51.002;4.356;2023-05-01T04:23:31;16.30;99.90
22035;DHT22;11181;51.002;4.356;2023-05-01T04:25:59;16.30;99.90
22035;DHT22;11181;51.002;4.356;2023-05-01T04:28:26;16.20;99.90
22035;DHT22;11181;51.002;4.356;2023-05-01T04:30:55;16.20;99.90
22035;DHT22;11181;51.002;4.356;2023-05-01T04:33:22;16.20;99.90
22035;DHT22;11181;51.002;4.356;2023-05-01T04:35:49;16.20;99.90
22035;DHT22;11181;51.002;4.356;2023-05-01T04:38:16;16.20;99.90
22035;DHT22;11181;51.002;4.356;2023-05-01T04:40:43;16.20;99.90
22035;DHT22;11181;51.002;4.356;2023-05-01T04:43:11;16.30;99.90
22035;DHT22;11181;51.002;4.356;2023-05-01T04:45:38;16.20;99.90
22035;DHT22;11181;51.002;4.356;2023-05-01T04:48:06;16.20;99.90
22035;DHT22;11181;51.002;4.356;2023-05-01T04:50:32;16.30;99.90
22035;DHT22;11181;51.002;4.356;2023-05-01T04:52:59;16.30;99.90
22035;DHT22;11181;51.002;4.356;2023-05-01T04:55:26;16.30;99.90
22035;DHT22;11181;51.002;4.356;2023-05-01T04:57:53;16.30;99.90
22035;DHT22;11181;51.002;4.356;2023-05-01T05:00:23;16.30;99.90
22035;DHT22;11181;51.002;4.356;2023-05-01T05:02:52;16.20;99.90
22035;DHT22;11181;51.002;4.356;2023-05-01T05:05:19;16.30;99.90
22035;DHT22;11181;51.002;4.356;2023-05-01T05:07:46;16.30;99.90
22035;DHT22;11181;51.002;4.356;2023-05-01T05:10:13;16.30;99.90
22035;DHT22;11181;51.002;4.356;2023-05-01T05:12:40;16.20;99.90
22035;DHT22;11181;51.002;4.356;2023-05-01T05:15:08;16.30;99.90
22035;DHT22;11181;51.002;4.356;2023-05-01T05:17:37;16.30;99.90
22035;DHT22;11181;51.002;4.356;2023-05-01T05:20:05;16.30;99.90
22035;DHT22;11181;51.002;4.356;2023-05-01T05:22:35;16.40;99.90
22035;DHT22;11181;51.002;4.356;2023-05-01T05:25:02;16.40;99.90
22035;DHT22;11181;51.002;4.356;2023-05-01T05:27:31;16.40;99.90
22035;DHT22;11181;51.002;4.356;2023-05-01T05:30:03;16.40;99.90
22035;DHT22;11181;51.002;4.356;2023-05-01T05:32:31;16.50;99.90
22035;DHT22;11181;51.002;4.356;2023-05-01T05:34:59;16.50;99.90
22035;DHT22;11181;51.002;4.356;2023-05-01T05:37:26;16.50;99.90
22035;DHT22;11181;51.002;4.356;2023-05-01T05:39:53;16.50;99.90
22035;DHT22;11181;51.002;4.356;2023-05-01T05:42:21;16.50;99.90
22035;DHT22;11181;51.002;4.356;2023-05-01T05:44:48;16.50;99.90
22035;DHT22;11181;51.002;4.356;2023-05-01T05:47:15;16.50;99.90
22035;DHT22;11181;51.002;4.356;2023-05-01T05:49:42;16.50;99.90
22035;DHT22;11181;51.002;4.356;2023-05-01T05:52:10;16.50;99.90
22035;DHT22;11181;51.002;4.356;2023-05-01T05:54:37;16.50;99.90
22035;DHT22;11181;51.002;4.356;2023-05-01T05:57:03;16.60;99.90
22035;DHT22;11181;51.002;4.356;2023-05-01T05:59:30;16.60;99.90
22035;DHT22;11181;51.002;4.356;2023-05-01T06:01:57;16.60;99.90
22035;DHT22;11181;51.002;4.356;2023-05-01T06:04:24;16.70;99.90
22035;DHT22;11181;51.002;4.356;2023-05-01T06:06:51;16.70;99.90
22035;DHT22;11181;51.002;4.356;2023-05-01T06:09:20;16.70;99.90
22035;DHT22;11181;51.002;4.356;2023-05-01T06:11:47;16.70;99.90
22035;DHT22;11181;51.002;4.356;2023-05-01T06:14:14;16.70;99.90
22035;DHT22;11181;51.002;4.356;2023-05-01T06:16:41;16.70;99.90
22035;DHT22;11181;51.002;4.356;2023-05-01T06:19:08;16.70;99.90
22035;DHT22;11181;51.002;4.356;2023-05-01T06:21:36;16.70;99.90
22035;DHT22;11181;51.002;4.356;2023-05-01T06:24:04;16.70;99.90
22035;DHT22;11181;51.002;4.356;2023-05-01T06:26:32;16.70;99.90
22035;DHT22;11181;51.002;4.356;2023-05-01T06:28:59;16.70;99.90
22035;DHT22;11181;51.002;4.356;2023-05-01T06:31:26;16.80;99.90
22035;DHT22;11181;51.002;4.356;2023-05-01T06:33:53;16.80;99.90
22035;DHT22;11181;51.002;4.356;2023-05-01T06:36:20;16.80;99.90
22035;DHT22;11181;51.002;4.356;2023-05-01T06:38:47;16.80;99.90
22035;DHT22;11181;51.002;4.356;2023-05-01T06:41:14;16.80;99.90
22035;DHT22;11181;51.002;4.356;2023-05-01T06:43:42;16.80;99.90
22035;DHT22;11181;51.002;4.356;2023-05-01T06:46:09;16.80;99.90
22035;DHT22;11181;51.002;4.356;2023-05-01T06:48:37;16.90;99.90
22035;DHT22;11181;51.002;4.356;2023-05-01T06:51:04;16.90;99.90
22035;DHT22;11181;51.002;4.356;2023-05-01T06:53:31;16.90;99.90
22035;DHT22;11181;51.002;4.356;2023-05-01T06:55:57;16.90;99.90
22035;DHT22;11181;51.002;4.356;2023-05-01T06:58:24;17.00;99.90
22035;DHT22;11181;51.002;4.356;2023-05-01T07:00:53;17.10;99.90
22035;DHT22;11181;51.002;4.356;2023-05-01T07:03:20;17.20;99.90
22035;DHT22;11181;51.002;4.356;2023-05-01T07:05:47;17.20;99.90
22035;DHT22;11181;51.002;4.356;2023-05-01T07:08:14;17.20;99.90
22035;DHT22;11181;51.002;4.356;2023-05-01T07:10:41;17.20;99.90
22035;DHT22;11181;51.002;4.356;2023-05-01T07:13:08;17.30;99.90
22035;DHT22;11181;51.002;4.356;2023-05-01T07:15:35;17.30;99.90
22035;DHT22;11181;51.002;4.356;2023-05-01T07:18:03;17.30;99.90
22035;DHT22;11181;51.002;4.356;2023-05-01T07:20:31;17.40;99.90
22035;DHT22;11181;51.002;4.356;2023-05-01T07:22:59;17.40;99.90
22035;DHT22;11181;51.002;4.356;2023-05-01T07:25:26;17.40;99.90
22035;DHT22;11181;51.002;4.356;2023-05-01T07:27:52;17.40;99.90
22035;DHT22;11181;51.002;4.356;2023-05-01T07:30:20;17.40;99.90
22035;DHT22;11181;51.002;4.356;2023-05-01T07:32:46;17.40;99.90
22035;DHT22;11181;51.002;4.356;2023-05-01T07:35:15;17.40;99.90
22035;DHT22;11181;51.002;4.356;2023-05-01T07:37:42;17.40;99.90
22035;DHT22;11181;51.002;4.356;2023-05-01T07:40:10;17.40;99.90
22035;DHT22;11181;51.002;4.356;2023-05-01T07:42:37;17.40;99.90
22035;DHT22;11181;51.002;4.356;2023-05-01T07:45:05;17.50;99.90
22035;DHT22;11181;51.002;4.356;2023-05-01T07:47:32;17.50;99.90
22035;DHT22;11181;51.002;4.356;2023-05-01T07:49:59;17.60;99.90
22035;DHT22;11181;51.002;4.356;2023-05-01T07:52:28;17.60;99.90
22035;DHT22;11181;51.002;4.356;2023-05-01T07:54:55;17.70;99.90
22035;DHT22;11181;51.002;4.356;2023-05-01T07:57:22;17.90;99.90
22035;DHT22;11181;51.002;4.356;2023-05-01T07:59:53;18.10;99.90
22035;DHT22;11181;51.002;4.356;2023-05-01T08:02:21;18.10;99.90
22035;DHT22;11181;51.002;4.356;2023-05-01T08:04:48;18.20;99.90
22035;DHT22;11181;51.002;4.356;2023-05-01T08:07:15;18.40;99.90
22035;DHT22;11181;51.002;4.356;2023-05-01T08:09:44;18.60;99.90
22035;DHT22;11181;51.002;4.356;2023-05-01T08:12:11;18.70;99.90
22035;DHT22;11181;51.002;4.356;2023-05-01T08:14:38;18.80;99.90
22035;DHT22;11181;51.002;4.356;2023-05-01T08:17:05;18.80;99.90
22035;DHT22;11181;51.002;4.356;2023-05-01T08:19:32;18.70;99.90
22035;DHT22;11181;51.002;4.356;2023-05-01T08:22:00;18.60;99.90
22035;DHT22;11181;51.002;4.356;2023-05-01T08:24:27;18.50;99.90
22035;DHT22;11181;51.002;4.356;2023-05-01T08:26:55;18.40;99.90
22035;DHT22;11181;51.002;4.356;2023-05-01T08:29:22;18.40;99.90
22035;DHT22;11181;51.002;4.356;2023-05-01T08:31:49;18.50;99.90
22035;DHT22;11181;51.002;4.356;2023-05-01T08:34:16;18.60;99.90
22035;DHT22;11181;51.002;4.356;2023-05-01T08:36:43;18.80;99.90
22035;DHT22;11181;51.002;4.356;2023-05-01T08:39:10;18.90;99.90
22035;DHT22;11181;51.002;4.356;2023-05-01T08:41:37;19.20;99.90
22035;DHT22;11181;51.002;4.356;2023-05-01T08:44:07;19.50;99.90
22035;DHT22;11181;51.002;4.356;2023-05-01T08:46:45;19.60;99.90
22035;DHT22;11181;51.002;4.356;2023-05-01T08:49:14;19.60;99.90
22035;DHT22;11181;51.002;4.356;2023-05-01T08:51:44;19.30;99.90
22035;DHT22;11181;51.002;4.356;2023-05-01T08:54:12;19.20;99.90
22035;DHT22;11181;51.002;4.356;2023-05-01T08:56:42;19.20;99.90
22035;DHT22;11181;51.002;4.356;2023-05-01T08:59:10;19.00;99.90
22035;DHT22;11181;51.002;4.356;2023-05-01T09:01:39;19.00;99.90
22035;DHT22;11181;51.002;4.356;2023-05-01T09:04:07;18.90;99.90
22035;DHT22;11181;51.002;4.356;2023-05-01T09:06:34;18.80;99.90
22035;DHT22;11181;51.002;4.356;2023-05-01T09:09:02;18.60;99.90
22035;DHT22;11181;51.002;4.356;2023-05-01T09:11:29;18.60;99.90
22035;DHT22;11181;51.002;4.356;2023-05-01T09:13:56;18.60;99.90
22035;DHT22;11181;51.002;4.356;2023-05-01T09:16:24;18.70;99.90
22035;DHT22;11181;51.002;4.356;2023-05-01T09:18:52;18.70;99.90
22035;DHT22;11181;51.002;4.356;2023-05-01T09:21:21;18.70;99.90
22035;DHT22;11181;51.002;4.356;2023-05-01T09:23:56;18.60;99.90
22035;DHT22;11181;51.002;4.356;2023-05-01T09:26:23;18.70;99.90
22035;DHT22;11181;51.002;4.356;2023-05-01T09:28:52;18.70;99.90
22035;DHT22;11181;51.002;4.356;2023-05-01T09:31:25;18.60;99.90
22035;DHT22;11181;51.002;4.356;2023-05-01T09:33:54;18.50;99.90
22035;DHT22;11181;51.002;4.356;2023-05-01T09:36:22;18.60;99.90
22035;DHT22;11181;51.002;4.356;2023-05-01T09:38:49;18.80;99.90
22035;DHT22;11181;51.002;4.356;2023-05-01T09:41:18;18.70;99.90
22035;DHT22;11181;51.002;4.356;2023-05-01T09:43:50;18.80;99.90
22035;DHT22;11181;51.002;4.356;2023-05-01T09:46:18;18.90;99.90
22035;DHT22;11181;51.002;4.356;2023-05-01T09:48:54;18.90;99.90
22035;DHT22;11181;51.002;4.356;2023-05-01T09:51:25;19.00;99.90
22035;DHT22;11181;51.002;4.356;2023-05-01T09:53:54;18.80;99.90
22035;DHT22;11181;51.002;4.356;2023-05-01T09:56:22;18.80;99.90
22035;DHT22;11181;51.002;4.356;2023-05-01T09:58:50;18.70;99.90
22035;DHT22;11181;51.002;4.356;2023-05-01T10:01:17;18.80;99.90
22035;DHT22;11181;51.002;4.356;2023-05-01T10:03:45;18.70;99.90
22035;DHT22;11181;51.002;4.356;2023-05-01T10:06:27;18.60;99.90
22035;DHT22;11181;51.002;4.356;2023-05-01T10:08:54;18.70;99.90
22035;DHT22;11181;51.002;4.356;2023-05-01T10:11:21;18.60;99.90
22035;DHT22;11181;51.002;4.356;2023-05-01T10:14:06;18.60;99.90
22035;DHT22;11181;51.002;4.356;2023-05-01T10:16:35;18.70;99.90
22035;DHT22;11181;51.002;4.356;2023-05-01T10:19:03;18.60;99.90
22035;DHT22;11181;51.002;4.356;2023-05-01T10:21:32;18.60;99.90
22035;DHT22;11181;51.002;4.356;2023-05-01T10:24:00;18.80;99.90
22035;DHT22;11181;51.002;4.356;2023-05-01T10:26:28;19.10;99.90
22035;DHT22;11181;51.002;4.356;2023-05-01T10:28:55;19.40;99.90
22035;DHT22;11181;51.002;4.356;2023-05-01T10:31:24;19.70;99.90
22035;DHT22;11181;51.002;4.356;2023-05-01T10:33:53;20.20;99.90
22035;DHT22;11181;51.002;4.356;2023-05-01T10:36:22;20.40;99.90
22035;DHT22;11181;51.002;4.356;2023-05-01T10:38:51;20.70;99.90
22035;DHT22;11181;51.002;4.356;2023-05-01T10:44:19;21.00;99.90
22035;DHT22;11181;51.002;4.356;2023-05-01T10:46:47;21.30;99.90
22035;DHT22;11181;51.002;4.356;2023-05-01T10:49:14;21.50;99.90
22035;DHT22;11181;51.002;4.356;2023-05-01T10:51:57;21.60;99.90
22035;DHT22;11181;51.002;4.356;2023-05-01T10:54:26;21.80;99.90
22035;DHT22;11181;51.002;4.356;2023-05-01T10:56:54;21.80;99.90
22035;DHT22;11181;51.002;4.356;2023-05-01T10:59:21;21.50;99.90
22035;DHT22;11181;51.002;4.356;2023-05-01T11:01:49;21.60;99.90
22035;DHT22;11181;51.002;4.356;2023-05-01T11:04:48;21.70;99.90
22035;DHT22;11181;51.002;4.356;2023-05-01T11:07:19;21.90;99.90
22035;DHT22;11181;51.002;4.356;2023-05-01T11:09:48;22.30;99.90
22035;DHT22;11181;51.002;4.356;2023-05-01T11:12:51;22.40;99.90
22035;DHT22;11181;51.002;4.356;2023-05-01T11:15:29;22.30;99.90
22035;DHT22;11181;51.002;4.356;2023-05-01T11:17:57;22.60;99.90
22035;DHT22;11181;51.002;4.356;2023-05-01T11:20:46;22.80;99.90
22035;DHT22;11181;51.002;4.356;2023-05-01T11:23:21;22.90;99.90
22035;DHT22;11181;51.002;4.356;2023-05-01T11:25:50;22.70;99.90
22035;DHT22;11181;51.002;4.356;2023-05-01T11:28:29;22.70;99.90
22035;DHT22;11181;51.002;4.356;2023-05-01T11:30:56;22.60;99.90
22035;DHT22;11181;51.002;4.356;2023-05-01T11:33:23;22.30;99.90
22035;DHT22;11181;51.002;4.356;2023-05-01T11:35:59;22.10;99.90
22035;DHT22;11181;51.002;4.356;2023-05-01T11:38:26;22.30;99.90
22035;DHT22;11181;51.002;4.356;2023-05-01T11:40:57;22.50;99.90
22035;DHT22;11181;51.002;4.356;2023-05-01T11:43:25;22.40;99.90
22035;DHT22;11181;51.002;4.356;2023-05-01T11:45:53;22.20;99.90
22035;DHT22;11181;51.002;4.356;2023-05-01T11:48:27;22.00;99.90
22035;DHT22;11181;51.002;4.356;2023-05-01T11:50:54;22.30;99.90
22035;DHT22;11181;51.002;4.356;2023-05-01T11:53:21;22.30;99.90
22035;DHT22;11181;51.002;4.356;2023-05-01T11:55:48;22.30;99.90
22035;DHT22;11181;51.002;4.356;2023-05-01T11:58:30;22.40;99.90
22035;DHT22;11181;51.002;4.356;2023-05-01T12:00:58;22.40;99.90
22035;DHT22;11181;51.002;4.356;2023-05-01T12:03:24;22.60;99.90
22035;DHT22;11181;51.002;4.356;2023-05-01T12:05:51;22.30;99.90
22035;DHT22;11181;51.002;4.356;2023-05-01T12:08:19;22.10;99.90
22035;DHT22;11181;51.002;4.356;2023-05-01T12:10:48;22.20;99.90
22035;DHT22;11181;51.002;4.356;2023-05-01T12:13:17;22.20;99.90
22035;DHT22;11181;51.002;4.356;2023-05-01T12:15:45;22.00;99.90
22035;DHT22;11181;51.002;4.356;2023-05-01T12:18:13;22.10;99.90
22035;DHT22;11181;51.002;4.356;2023-05-01T12:20:41;22.10;99.90
22035;DHT22;11181;51.002;4.356;2023-05-01T12:23:10;21.90;99.90
22035;DHT22;11181;51.002;4.356;2023-05-01T12:25:38;21.70;99.90
22035;DHT22;11181;51.002;4.356;2023-05-01T12:28:11;21.60;99.90
22035;DHT22;11181;51.002;4.356;2023-05-01T12:30:40;21.60;99.90
22035;DHT22;11181;51.002;4.356;2023-05-01T12:33:09;21.60;99.90
22035;DHT22;11181;51.002;4.356;2023-05-01T12:35:36;21.20;99.90
22035;DHT22;11181;51.002;4.356;2023-05-01T12:38:10;21.30;99.90
22035;DHT22;11181;51.002;4.356;2023-05-01T12:40:38;21.00;99.90
22035;DHT22;11181;51.002;4.356;2023-05-01T12:43:05;20.90;99.90
22035;DHT22;11181;51.002;4.356;2023-05-01T12:45:39;20.90;99.90
22035;DHT22;11181;51.002;4.356;2023-05-01T12:48:11;20.80;99.90
22035;DHT22;11181;51.002;4.356;2023-05-01T12:50:40;20.80;99.90
22035;DHT22;11181;51.002;4.356;2023-05-01T12:53:08;20.50;99.90
22035;DHT22;11181;51.002;4.356;2023-05-01T12:55:43;20.30;99.90
22035;DHT22;11181;51.002;4.356;2023-05-01T12:58:11;20.40;99.90
22035;DHT22;11181;51.002;4.356;2023-05-01T13:00:47;20.10;99.90
22035;DHT22;11181;51.002;4.356;2023-05-01T13:03:14;20.00;99.90
22035;DHT22;11181;51.002;4.356;2023-05-01T13:05:50;20.10;99.90
22035;DHT22;11181;51.002;4.356;2023-05-01T13:08:24;19.70;99.90
22035;DHT22;11181;51.002;4.356;2023-05-01T13:10:53;19.40;99.90
22035;DHT22;11181;51.002;4.356;2023-05-01T13:13:24;19.30;99.90
22035;DHT22;11181;51.002;4.356;2023-05-01T13:15:53;19.20;99.90
22035;DHT22;11181;51.002;4.356;2023-05-01T13:18:20;19.10;99.90
22035;DHT22;11181;51.002;4.356;2023-05-01T13:20:48;19.20;99.90
22035;DHT22;11181;51.002;4.356;2023-05-01T13:23:15;19.30;99.90
22035;DHT22;11181;51.002;4.356;2023-05-01T13:25:43;19.40;99.90
22035;DHT22;11181;51.002;4.356;2023-05-01T13:28:16;19.60;99.90
22035;DHT22;11181;51.002;4.356;2023-05-01T13:30:44;19.80;99.90
22035;DHT22;11181;51.002;4.356;2023-05-01T13:33:13;19.90;99.90
22035;DHT22;11181;51.002;4.356;2023-05-01T13:35:39;19.80;99.90
22035;DHT22;11181;51.002;4.356;2023-05-01T13:38:09;19.50;99.90
22035;DHT22;11181;51.002;4.356;2023-05-01T13:40:38;19.80;99.90
22035;DHT22;11181;51.002;4.356;2023-05-01T13:43:11;20.10;99.90
22035;DHT22;11181;51.002;4.356;2023-05-01T13:45:39;20.60;99.90
22035;DHT22;11181;51.002;4.356;2023-05-01T13:48:06;20.80;99.90
22035;DHT22;11181;51.002;4.356;2023-05-01T13:50:37;20.90;99.90
22035;DHT22;11181;51.002;4.356;2023-05-01T13:53:06;21.00;99.90
22035;DHT22;11181;51.002;4.356;2023-05-01T13:55:33;21.00;99.90
22035;DHT22;11181;51.002;4.356;2023-05-01T13:58:01;21.20;99.90
22035;DHT22;11181;51.002;4.356;2023-05-01T14:00:28;21.40;99.90
22035;DHT22;11181;51.002;4.356;2023-05-01T14:02:55;21.80;99.90
22035;DHT22;11181;51.002;4.356;2023-05-01T14:05:26;22.00;99.90
22035;DHT22;11181;51.002;4.356;2023-05-01T14:07:56;22.00;99.90
22035;DHT22;11181;51.002;4.356;2023-05-01T14:10:25;21.70;99.90
22035;DHT22;11181;51.002;4.356;2023-05-01T14:12:54;21.40;99.90
22035;DHT22;11181;51.002;4.356;2023-05-01T14:15:23;21.30;99.90
22035;DHT22;11181;51.002;4.356;2023-05-01T14:17:50;21.00;99.90
22035;DHT22;11181;51.002;4.356;2023-05-01T14:20:17;21.50;99.90
22035;DHT22;11181;51.002;4.356;2023-05-01T14:22:45;22.10;99.90
22035;DHT22;11181;51.002;4.356;2023-05-01T14:25:22;22.50;99.90
22035;DHT22;11181;51.002;4.356;2023-05-01T14:27:50;22.60;99.90
22035;DHT22;11181;51.002;4.356;2023-05-01T14:30:29;21.90;99.90
22035;DHT22;11181;51.002;4.356;2023-05-01T14:32:59;21.20;99.90
22035;DHT22;11181;51.002;4.356;2023-05-01T14:35:26;20.90;99.90
22035;DHT22;11181;51.002;4.356;2023-05-01T14:37:53;21.10;99.90
22035;DHT22;11181;51.002;4.356;2023-05-01T14:40:24;21.20;99.90
22035;DHT22;11181;51.002;4.356;2023-05-01T14:42:52;20.80;99.90
22035;DHT22;11181;51.002;4.356;2023-05-01T14:45:20;20.60;99.90
22035;DHT22;11181;51.002;4.356;2023-05-01T14:47:48;20.60;99.90
22035;DHT22;11181;51.002;4.356;2023-05-01T14:50:19;20.50;99.90
22035;DHT22;11181;51.002;4.356;2023-05-01T14:52:51;20.20;99.90
22035;DHT22;11181;51.002;4.356;2023-05-01T14:55:24;19.70;99.90
22035;DHT22;11181;51.002;4.356;2023-05-01T14:57:51;19.40;99.90
22035;DHT22;11181;51.002;4.356;2023-05-01T15:00:19;19.40;99.90
22035;DHT22;11181;51.002;4.356;2023-05-01T15:02:45;19.80;99.90
22035;DHT22;11181;51.002;4.356;2023-05-01T15:05:13;20.30;99.90
22035;DHT22;11181;51.002;4.356;2023-05-01T15:07:40;20.50;99.90
22035;DHT22;11181;51.002;4.356;2023-05-01T15:10:08;20.70;99.90
22035;DHT22;11181;51.002;4.356;2023-05-01T15:12:37;20.70;99.90
22035;DHT22;11181;51.002;4.356;2023-05-01T15:15:04;20.80;99.90
22035;DHT22;11181;51.002;4.356;2023-05-01T15:17:32;20.90;99.90
22035;DHT22;11181;51.002;4.356;2023-05-01T15:19:59;20.50;99.90
22035;DHT22;11181;51.002;4.356;2023-05-01T15:22:26;20.10;99.90
22035;DHT22;11181;51.002;4.356;2023-05-01T15:24:53;19.70;99.90
22035;DHT22;11181;51.002;4.356;2023-05-01T15:27:20;19.40;99.90
22035;DHT22;11181;51.002;4.356;2023-05-01T15:29:48;19.50;99.90
22035;DHT22;11181;51.002;4.356;2023-05-01T15:32:15;19.60;99.90
22035;DHT22;11181;51.002;4.356;2023-05-01T15:34:42;19.70;99.90
22035;DHT22;11181;51.002;4.356;2023-05-01T15:37:09;19.60;99.90
22035;DHT22;11181;51.002;4.356;2023-05-01T15:39:36;19.60;99.90
22035;DHT22;11181;51.002;4.356;2023-05-01T15:42:04;20.10;99.90
22035;DHT22;11181;51.002;4.356;2023-05-01T15:44:32;20.60;99.90